Time;durP1;ratioP1;P1;durP2;ratioP2;P2;SDS_P1;SDS_P2;PMS_P1;PMS_P2;Temp;Humidity;BMP_temperature;BMP_pressure;BME280_temperature;BME280_humidity;BME280_pressure;Samples;Min_cycle;Max_cycle;Signal;HPM_P1;HPM_P2
2021/01/30 00:00:19;;;;;;;1.77;0.70;;;;;;;5.88;86.30;97679.78;5093202;28;20461;-79
2021/01/30 00:02:46;;;;;;;3.55;0.80;;;;;;;5.93;85.68;97697.06;5093282;28;20059;-80
2021/01/30 00:05:15;;;;;;;0.52;0.52;;;;;;;6.05;85.15;97724.38;5090687;28;20108;-79
2021/01/30 00:07:42;;;;;;;3.80;0.90;;;;;;;5.99;86.15;97715.22;5092959;28;20567;-80
2021/01/30 00:10:11;;;;;;;3.08;0.85;;;;;;;5.87;86.28;97696.97;5092920;28;20044;-80
2021/01/30 00:12:38;;;;;;;2.55;0.68;;;;;;;5.88;86.07;97701.34;5092838;28;20051;-80
2021/01/30 00:15:05;;;;;;;5.13;1.00;;;;;;;5.98;85.94;97710.84;5092457;28;20051;-80
2021/01/30 00:17:32;;;;;;;1.33;0.70;;;;;;;5.84;86.14;97703.59;5092699;28;20044;-79
2021/01/30 00:19:58;;;;;;;4.28;0.75;;;;;;;5.80;86.51;97702.31;5092831;28;20055;-80
2021/01/30 00:22:27;;;;;;;1.77;0.70;;;;;;;5.93;86.69;97736.69;5072235;28;20048;-79
2021/01/30 00:24:53;;;;;;;3.55;1.00;;;;;;;5.92;86.51;97716.97;5082393;28;20068;-80
2021/01/30 00:27:22;;;;;;;1.50;0.57;;;;;;;5.92;86.00;97727.75;5092839;28;20055;-80
2021/01/30 00:29:49;;;;;;;2.53;0.90;;;;;;;5.83;85.12;97705.47;5089083;28;20041;-80
2021/01/30 00:32:18;;;;;;;3.60;1.27;;;;;;;5.89;85.26;97719.22;5072570;28;20060;-79
2021/01/30 00:34:44;;;;;;;5.18;0.95;;;;;;;5.78;85.53;97712.44;5070943;28;20654;-79
2021/01/30 00:37:14;;;;;;;7.25;0.80;;;;;;;5.79;84.58;97712.25;5083482;28;20044;-80
2021/01/30 00:39:40;;;;;;;0.60;0.60;;;;;;;5.84;84.97;97711.66;5092487;28;20052;-80
2021/01/30 00:42:17;;;;;;;2.55;0.95;;;;;;;5.78;85.46;97717.81;5088711;28;20052;-80
2021/01/30 00:44:44;;;;;;;6.88;1.00;;;;;;;5.80;85.40;97715.81;5091127;28;20048;-80
2021/01/30 00:47:11;;;;;;;5.38;1.00;;;;;;;5.76;85.13;97711.81;5092202;28;20052;-80
2021/01/30 00:49:40;;;;;;;4.75;1.20;;;;;;;5.70;85.28;97694.50;5092627;28;20044;-80
2021/01/30 00:52:07;;;;;;;4.20;1.05;;;;;;;5.81;85.34;97702.13;5077833;28;20515;-80
2021/01/30 00:54:33;;;;;;;3.83;1.10;;;;;;;5.77;85.03;97708.91;5091810;28;20044;-80
2021/01/30 00:57:08;;;;;;;2.78;0.70;;;;;;;5.79;84.67;97719.50;5092142;28;20048;-80
2021/01/30 00:59:35;;;;;;;2.13;0.95;;;;;;;5.65;84.52;97708.56;5092142;28;20055;-80
2021/01/30 01:02:02;;;;;;;7.18;1.30;;;;;;;5.60;84.11;97708.31;5092230;28;20056;-80
2021/01/30 01:04:29;;;;;;;6.72;1.10;;;;;;;5.80;83.86;97723.88;5076383;28;20045;-80
2021/01/30 01:06:56;;;;;;;3.20;1.08;;;;;;;5.72;83.90;97718.59;5092355;28;20634;-80
2021/01/30 01:09:23;;;;;;;1.85;0.60;;;;;;;5.59;84.01;97709.31;5092695;28;20122;-80
2021/01/30 01:11:51;;;;;;;2.75;0.85;;;;;;;5.70;84.29;97720.66;5091929;28;20052;-80
2021/01/30 01:14:19;;;;;;;4.20;1.02;;;;;;;5.77;83.71;97735.06;5091549;28;20051;-79
2021/01/30 01:16:45;;;;;;;3.13;0.90;;;;;;;5.62;83.67;97718.91;5092033;28;20443;-80
2021/01/30 01:19:14;;;;;;;2.78;0.93;;;;;;;5.75;83.77;97742.47;5092378;28;20052;-79
2021/01/30 01:21:40;;;;;;;3.83;0.98;;;;;;;5.57;83.46;97714.09;5092301;28;20454;-80
2021/01/30 01:24:08;;;;;;;4.55;1.00;;;;;;;5.62;83.55;97730.50;5092250;28;20056;-79
2021/01/30 01:26:34;;;;;;;4.57;0.90;;;;;;;5.72;83.75;97754.50;5090242;28;20044;-79
2021/01/30 01:29:00;;;;;;;4.13;1.00;;;;;;;5.66;83.42;97745.31;5091502;28;20056;-79
2021/01/30 01:31:28;;;;;;;2.05;0.82;;;;;;;5.66;83.52;97744.44;5091938;28;20056;-79
2021/01/30 01:33:54;;;;;;;5.25;0.73;;;;;;;5.66;83.06;97750.69;5092056;28;20044;-79
2021/01/30 01:36:22;;;;;;;3.63;0.77;;;;;;;5.71;83.92;97749.31;5081381;28;20388;-79
2021/01/30 01:38:49;;;;;;;2.55;0.80;;;;;;;5.71;83.99;97754.69;5092081;28;20615;-80
2021/01/30 01:41:16;;;;;;;2.45;0.60;;;;;;;5.56;83.36;97730.44;5092024;28;20255;-79
2021/01/30 01:43:42;;;;;;;4.80;0.95;;;;;;;5.56;83.84;97727.75;5071910;28;20105;-79
2021/01/30 01:46:20;;;;;;;4.82;1.17;;;;;;;5.63;84.02;97740.28;5089034;28;20071;-80
2021/01/30 01:48:54;;;;;;;2.67;0.75;;;;;;;5.68;83.98;97745.94;5092241;28;20408;-79
2021/01/30 01:51:27;;;;;;;2.60;0.93;;;;;;;5.58;83.85;97726.50;5090549;28;20416;-80
2021/01/30 01:53:56;;;;;;;3.55;0.80;;;;;;;5.50;83.79;97718.53;5071832;28;20500;-79
2021/01/30 01:56:26;;;;;;;1.63;0.73;;;;;;;5.54;84.12;97736.03;5071657;28;20056;-79
2021/01/30 01:58:59;;;;;;;4.60;1.13;;;;;;;5.45;84.68;97723.66;5075646;28;20102;-80
2021/01/30 02:01:25;;;;;;;4.70;0.90;;;;;;;5.56;84.85;97758.22;5094808;28;20081;-80
2021/01/30 02:03:56;;;;;;;11.90;2.15;;;;;;;5.50;85.69;97732.84;5092504;28;20481;-78
2021/01/30 02:06:24;;;;;;;3.75;0.77;;;;;;;5.49;83.31;97722.25;5092335;28;20040;-79
2021/01/30 02:08:51;;;;;;;2.33;0.60;;;;;;;5.55;84.43;97734.16;5095418;28;20561;-80
2021/01/30 02:11:18;;;;;;;4.55;1.20;;;;;;;5.41;85.51;97714.28;5095191;28;20048;-80
2021/01/30 02:13:49;;;;;;;4.15;0.95;;;;;;;5.37;86.36;97726.47;5091410;28;20632;-80
2021/01/30 02:16:27;;;;;;;3.38;1.30;;;;;;;5.36;86.01;97717.53;5094665;28;20052;-80
2021/01/30 02:19:20;;;;;;;2.58;0.95;;;;;;;5.29;85.76;97708.53;5094053;28;20130;-79
2021/01/30 02:22:43;;;;;;;1.75;0.75;;;;;;;5.47;87.02;97748.56;5094173;28;20055;-81
2021/01/30 02:25:39;;;;;;;1.35;0.82;;;;;;;5.30;86.65;97716.44;5092931;28;20055;-79
2021/01/30 02:28:14;;;;;;;1.35;0.75;;;;;;;5.43;87.19;97721.13;5081683;28;20040;-79
2021/01/30 02:31:23;;;;;;;2.70;0.73;;;;;;;5.47;86.74;97732.41;5094901;28;20644;-79
2021/01/30 02:34:12;;;;;;;5.43;1.02;;;;;;;5.48;86.12;97724.13;5079407;28;20074;-79
2021/01/30 02:36:47;;;;;;;2.40;0.73;;;;;;;5.48;86.10;97724.13;5094641;28;20048;-79
2021/01/30 02:39:18;;;;;;;1.63;0.80;;;;;;;5.50;86.21;97730.16;5094651;28;20055;-79
2021/01/30 02:41:51;;;;;;;4.15;0.75;;;;;;;5.36;86.08;97712.16;5095047;28;20606;-79
2021/01/30 02:44:19;;;;;;;7.47;1.00;;;;;;;5.43;85.75;97712.22;5093862;28;20060;-80
2021/01/30 02:46:51;;;;;;;2.65;0.70;;;;;;;5.34;85.43;97697.19;5094528;28;20101;-80
2021/01/30 02:49:21;;;;;;;6.03;1.20;;;;;;;5.37;85.46;97703.03;5094529;28;20048;-79
2021/01/30 02:51:57;;;;;;;5.18;1.02;;;;;;;5.52;84.14;97721.88;5093038;28;20048;-79
2021/01/30 02:54:24;;;;;;;1.08;0.60;;;;;;;5.53;84.18;97715.47;5093918;28;20055;-79
2021/01/30 02:56:57;;;;;;;1.85;0.82;;;;;;;5.44;84.68;97705.81;5094327;28;20074;-79
2021/01/30 02:59:25;;;;;;;5.07;0.82;;;;;;;5.59;84.53;97730.88;5094274;28;20544;-79
2021/01/30 03:01:52;;;;;;;4.57;1.13;;;;;;;5.53;84.14;97712.78;5094795;28;20146;-79
2021/01/30 03:04:22;;;;;;;2.92;1.02;;;;;;;5.53;83.66;97698.47;5093505;28;20076;-80
2021/01/30 03:07:21;;;;;;;2.05;0.80;;;;;;;5.60;83.77;97711.00;5094149;28;20105;-80
2021/01/30 03:09:55;;;;;;;0.97;0.70;;;;;;;5.59;84.04;97701.25;5073288;28;20048;-79
2021/01/30 03:12:25;;;;;;;1.48;0.60;;;;;;;5.43;84.23;97678.00;5093853;28;20294;-80
2021/01/30 03:14:56;;;;;;;3.88;0.63;;;;;;;5.58;83.91;97693.34;5093382;28;20044;-80
2021/01/30 03:17:26;;;;;;;2.38;1.10;;;;;;;5.41;83.71;97665.78;5111798;28;20442;-79
2021/01/30 03:19:54;;;;;;;0.85;0.60;;;;;;;5.59;83.35;97692.31;5098530;28;20109;-79
2021/01/30 03:22:24;;;;;;;2.13;1.33;;;;;;;5.53;83.26;97676.91;5093940;28;20109;-79
2021/01/30 03:24:51;;;;;;;4.03;0.63;;;;;;;5.58;83.26;97677.16;5093373;28;20051;-79
2021/01/30 03:27:20;;;;;;;3.05;0.70;;;;;;;5.59;82.92;97678.84;5092212;28;20035;-79
2021/01/30 03:29:47;;;;;;;1.40;0.68;;;;;;;5.46;82.73;97669.56;5093757;28;20055;-79
2021/01/30 03:32:13;;;;;;;5.97;0.57;;;;;;;5.59;82.87;97681.53;5093542;28;20044;-80
2021/01/30 03:34:40;;;;;;;2.70;0.70;;;;;;;5.47;82.46;97659.63;5092970;28;20442;-80
2021/01/30 03:37:06;;;;;;;1.65;0.60;;;;;;;5.56;82.57;97674.66;5092797;28;20055;-79
2021/01/30 03:39:33;;;;;;;1.50;0.50;;;;;;;5.60;83.00;97686.75;5091131;28;20052;-79
2021/01/30 03:41:59;;;;;;;2.63;0.80;;;;;;;5.50;83.13;97661.94;5092066;28;20048;-79
2021/01/30 03:44:25;;;;;;;3.63;0.85;;;;;;;5.59;83.26;97686.94;5090974;28;20051;-79
2021/01/30 03:46:52;;;;;;;5.57;0.88;;;;;;;5.47;83.86;97673.09;5091140;28;20051;-79
2021/01/30 03:49:18;;;;;;;2.15;0.60;;;;;;;5.46;83.75;97674.94;5091821;28;20107;-79
2021/01/30 03:51:44;;;;;;;4.72;0.77;;;;;;;5.47;83.77;97681.19;5090193;28;20462;-80
2021/01/30 03:54:13;;;;;;;3.10;0.55;;;;;;;5.38;83.59;97672.38;5092473;28;20435;-80
2021/01/30 03:56:41;;;;;;;0.82;0.40;;;;;;;5.43;83.84;97674.50;5093010;28;20571;-79
2021/01/30 03:59:08;;;;;;;0.93;0.63;;;;;;;5.47;84.43;97689.28;5092604;28;20052;-80
2021/01/30 04:01:34;;;;;;;3.28;0.80;;;;;;;5.36;84.08;97676.25;5092842;28;20400;-80
2021/01/30 04:04:01;;;;;;;1.35;0.80;;;;;;;5.28;84.32;97656.50;5092806;28;20044;-79
2021/01/30 04:06:27;;;;;;;0.65;0.60;;;;;;;5.37;84.86;97678.78;5092728;28;20044;-80
2021/01/30 04:08:53;;;;;;;4.25;0.60;;;;;;;5.36;84.90;97670.88;5093016;28;20055;-80
2021/01/30 04:11:24;;;;;;;2.75;0.65;;;;;;;5.22;85.41;97649.16;5093054;28;20047;-80
2021/01/30 04:13:51;;;;;;;2.90;0.52;;;;;;;5.33;85.29;97674.81;5093042;28;20641;-79
2021/01/30 04:16:18;;;;;;;2.45;0.50;;;;;;;5.34;85.85;97675.63;5091931;28;20052;-80
2021/01/30 04:18:44;;;;;;;3.58;0.60;;;;;;;5.16;86.00;97651.78;5092708;28;20048;-80
2021/01/30 04:21:10;;;;;;;1.92;0.57;;;;;;;5.26;86.45;97653.16;5092138;28;20048;-80
2021/01/30 04:23:36;;;;;;;5.68;0.70;;;;;;;5.22;86.44;97649.16;5092974;28;20052;-80
2021/01/30 04:26:03;;;;;;;0.50;0.50;;;;;;;5.23;87.13;97652.69;5092045;28;20048;-80
2021/01/30 04:28:29;;;;;;;1.45;0.50;;;;;;;5.22;87.04;97653.72;5091200;28;20125;-80
2021/01/30 04:30:56;;;;;;;2.03;0.52;;;;;;;5.13;87.22;97629.59;5092685;28;20055;-79
2021/01/30 04:33:23;;;;;;;2.85;1.08;;;;;;;5.23;87.39;97642.75;5093067;28;20044;-80
2021/01/30 04:35:49;;;;;;;2.10;0.50;;;;;;;5.23;86.98;97642.75;5092475;28;20044;-80
2021/01/30 04:38:15;;;;;;;0.73;0.60;;;;;;;5.19;87.33;97638.75;5092491;28;20491;-80
2021/01/30 04:40:43;;;;;;;4.97;0.70;;;;;;;5.14;87.91;97628.53;5092802;28;20059;-79
2021/01/30 04:43:18;;;;;;;1.80;0.77;;;;;;;5.25;87.94;97647.94;5092555;28;20044;-80
2021/01/30 04:45:57;;;;;;;2.90;0.90;;;;;;;5.09;88.12;97617.50;5091916;28;20519;-80
2021/01/30 04:48:38;;;;;;;3.83;0.73;;;;;;;5.09;88.29;97614.81;5092893;28;20044;-81
2021/01/30 04:51:10;;;;;;;3.92;0.60;;;;;;;5.26;88.37;97625.38;5077463;28;20047;-80
2021/01/30 04:53:53;;;;;;;0.70;0.45;;;;;;;5.26;88.60;97631.59;5092697;28;20053;-80
2021/01/30 04:56:26;;;;;;;7.97;1.02;;;;;;;5.23;88.07;97617.66;5091960;28;20055;-80
2021/01/30 04:59:02;;;;;;;3.25;0.75;;;;;;;5.21;87.98;97620.56;5092436;28;20052;-80
2021/01/30 05:01:37;;;;;;;1.13;0.68;;;;;;;5.13;87.41;97618.81;5092508;28;20052;-80
2021/01/30 05:04:15;;;;;;;0.55;0.50;;;;;;;5.01;87.63;97593.34;5092247;28;20044;-80
2021/01/30 05:07:13;;;;;;;0.50;0.40;;;;;;;5.18;86.88;97612.84;5092314;28;20048;-80
2021/01/30 05:09:49;;;;;;;1.50;0.68;;;;;;;5.13;87.56;97612.56;5069514;28;20048;-80
2021/01/30 05:12:18;;;;;;;1.77;0.57;;;;;;;5.23;87.83;97613.09;5092282;28;20063;-80
2021/01/30 05:14:54;;;;;;;0.85;0.60;;;;;;;5.06;87.96;97590.94;5091846;28;20055;-80
2021/01/30 05:17:25;;;;;;;0.47;0.40;;;;;;;5.19;88.01;97609.13;5092222;28;20048;-80
2021/01/30 05:19:58;;;;;;;0.85;0.68;;;;;;;5.10;87.85;97605.72;5092460;28;20048;-80
2021/01/30 05:22:33;;;;;;;5.05;0.80;;;;;;;5.03;86.28;97595.84;5092208;28;20760;-80
2021/01/30 05:24:59;;;;;;;1.85;0.40;;;;;;;5.27;87.39;97619.78;5091184;28;20064;-80
2021/01/30 05:27:38;;;;;;;1.85;0.68;;;;;;;5.12;86.51;97605.53;5090596;28;20129;-80
2021/01/30 05:30:10;;;;;;;2.20;0.70;;;;;;;5.17;86.92;97589.63;5091756;28;20117;-80
2021/01/30 05:32:43;;;;;;;1.40;0.63;;;;;;;5.08;85.17;97588.88;5095664;28;20052;-80
2021/01/30 05:35:17;;;;;;;2.40;0.73;;;;;;;5.16;85.39;97593.31;5095490;28;20407;-80
2021/01/30 05:37:51;;;;;;;1.27;0.80;;;;;;;5.15;85.43;97591.69;5075759;28;20102;-80
2021/01/30 05:40:28;;;;;;;1.50;0.80;;;;;;;5.18;84.98;97604.78;5075676;28;20044;-80
2021/01/30 05:43:04;;;;;;;0.80;0.40;;;;;;;5.14;85.26;97593.53;5075418;28;20052;-80
2021/01/30 05:45:39;;;;;;;3.05;0.60;;;;;;;5.19;85.02;97598.34;5074728;28;20408;-80
2021/01/30 05:48:09;;;;;;;0.95;0.60;;;;;;;5.18;83.96;97588.59;5088440;28;20102;-80
2021/01/30 05:50:42;;;;;;;5.13;0.70;;;;;;;5.19;82.96;97587.56;5093972;28;20134;-80
2021/01/30 05:53:10;;;;;;;8.02;1.00;;;;;;;5.28;83.74;97593.69;5095850;28;20048;-80
2021/01/30 05:55:38;;;;;;;1.90;0.57;;;;;;;5.17;83.32;97578.84;5095172;28;20052;-80
2021/01/30 05:58:08;;;;;;;1.65;0.68;;;;;;;5.20;82.99;97573.06;5095687;28;20484;-80
2021/01/30 06:00:34;;;;;;;5.00;0.80;;;;;;;5.14;84.34;97576.53;5095390;28;20044;-80
2021/01/30 06:03:10;;;;;;;1.83;0.80;;;;;;;5.28;83.57;97601.75;5095677;28;20056;-80
2021/01/30 06:05:40;;;;;;;2.25;1.13;;;;;;;5.25;84.15;97575.19;5094678;28;20047;-79
2021/01/30 06:08:24;;;;;;;8.10;1.30;;;;;;;5.16;83.57;97570.94;5096118;28;20051;-79
2021/01/30 06:10:53;;;;;;;2.35;1.02;;;;;;;5.28;84.34;97588.28;5095046;28;20496;-80
2021/01/30 06:13:22;;;;;;;4.65;1.08;;;;;;;5.21;84.10;97576.59;5095445;28;20048;-80
2021/01/30 06:15:52;;;;;;;7.40;1.02;;;;;;;5.21;84.70;97580.13;5094533;28;20059;-80
2021/01/30 06:24:35;;;;;;;2.58;0.88;;;;;;;5.24;83.83;97571.69;5094678;28;20052;-80
2021/01/30 06:27:07;;;;;;;16.75;1.85;;;;;;;5.16;84.50;97552.91;5093372;28;20051;-80
2021/01/30 06:29:37;;;;;;;4.32;1.55;;;;;;;5.16;84.40;97557.47;5094957;28;20067;-80
2021/01/30 06:32:13;;;;;;;15.88;4.18;;;;;;;5.25;83.53;97578.72;5095117;28;20377;-80
2021/01/30 06:34:40;;;;;;;8.27;2.88;;;;;;;5.26;83.04;97580.41;5094355;28;20446;-80
2021/01/30 06:37:14;;;;;;;8.35;1.73;;;;;;;5.33;82.55;97580.50;5094852;28;20492;-80
2021/01/30 06:39:45;;;;;;;13.13;1.83;;;;;;;5.31;82.80;97577.97;5094924;28;20481;-80
2021/01/30 06:42:22;;;;;;;6.38;1.08;;;;;;;5.17;81.58;97557.28;5094029;28;20459;-79
2021/01/30 06:44:49;;;;;;;11.40;2.03;;;;;;;5.34;81.64;97581.31;5094020;28;20093;-80
2021/01/30 06:47:18;;;;;;;10.85;1.60;;;;;;;5.24;81.46;97557.34;5094486;28;20512;-80
2021/01/30 06:49:46;;;;;;;6.72;1.83;;;;;;;5.40;82.24;97575.97;5086046;28;20048;-80
2021/01/30 06:52:20;;;;;;;12.70;1.63;;;;;;;5.31;81.91;97558.25;5092881;28;20488;-80
2021/01/30 06:54:47;;;;;;;16.23;1.85;;;;;;;5.22;82.24;97549.47;5093802;28;20097;-80
2021/01/30 06:57:23;;;;;;;8.70;1.80;;;;;;;5.24;81.39;97551.97;5094649;28;20051;-80
2021/01/30 06:59:54;;;;;;;6.18;1.35;;;;;;;5.18;82.06;97542.81;5094434;28;20062;-80
2021/01/30 07:02:25;;;;;;;8.70;1.45;;;;;;;5.32;81.56;97563.47;5094352;28;20048;-80
2021/01/30 07:05:08;;;;;;;9.85;1.67;;;;;;;5.22;82.10;97549.47;5093391;28;20094;-80
2021/01/30 07:07:44;;;;;;;16.48;1.77;;;;;;;5.30;82.15;97554.75;5094368;28;20411;-80
2021/01/30 07:10:27;;;;;;;9.05;1.60;;;;;;;5.29;81.80;97555.75;5094314;28;20052;-80
2021/01/30 07:13:10;;;;;;;13.60;4.55;;;;;;;5.26;82.26;97556.16;5093797;28;20093;-80
2021/01/30 07:15:42;;;;;;;19.20;5.45;;;;;;;5.26;82.68;97563.41;5093843;28;20056;-80
2021/01/30 07:18:28;;;;;;;18.23;6.38;;;;;;;5.22;82.60;97557.53;5094108;28;20047;-80
2021/01/30 07:21:10;;;;;;;15.43;3.22;;;;;;;5.16;82.62;97550.22;5094039;28;20117;-80
2021/01/30 07:23:43;;;;;;;12.13;3.22;;;;;;;5.10;82.62;97541.06;5094071;28;20056;-80
2021/01/30 07:26:17;;;;;;;7.90;2.25;;;;;;;5.16;82.71;97547.53;5093001;28;20571;-80
2021/01/30 07:28:48;;;;;;;9.10;1.65;;;;;;;5.20;82.63;97556.91;5092587;28;20040;-80
2021/01/30 07:31:23;;;;;;;7.85;2.38;;;;;;;5.26;82.93;97560.72;5093520;28;20048;-80
2021/01/30 07:33:51;;;;;;;12.65;1.98;;;;;;;5.24;83.19;97550.13;5093774;28;20059;-79
2021/01/30 07:36:24;;;;;;;7.38;2.10;;;;;;;5.25;83.01;97543.69;5092868;28;20051;-79
2021/01/30 07:38:58;;;;;;;10.43;1.45;;;;;;;5.20;82.87;97537.22;5093241;28;20048;-78
2021/01/30 07:41:39;;;;;;;14.20;1.50;;;;;;;5.22;82.19;97536.00;5086186;28;20063;-80
2021/01/30 07:44:13;;;;;;;8.88;1.55;;;;;;;5.23;82.04;97531.47;5093076;28;20117;-79
2021/01/30 07:46:46;;;;;;;11.60;1.92;;;;;;;5.30;81.36;97533.19;5092542;28;20040;-79
2021/01/30 07:49:19;;;;;;;8.82;1.73;;;;;;;5.27;81.35;97521.97;5093674;28;20140;-80
2021/01/30 07:51:56;;;;;;;7.00;2.00;;;;;;;5.25;81.47;97518.63;5091201;28;20062;-81
2021/01/30 07:54:23;;;;;;;12.73;3.13;;;;;;;5.31;81.83;97521.41;5093035;28;20051;-81
2021/01/30 07:57:10;;;;;;;7.22;1.50;;;;;;;5.38;82.01;97529.53;5093136;28;20135;-81
2021/01/30 07:59:46;;;;;;;10.18;1.48;;;;;;;5.48;81.98;97529.22;5093294;28;20043;-81
2021/01/30 08:02:40;;;;;;;7.70;1.20;;;;;;;5.44;81.56;97536.03;5093281;28;20044;-81
2021/01/30 08:05:19;;;;;;;6.57;1.52;;;;;;;5.48;81.95;97524.66;5093009;28;20056;-81
2021/01/30 08:07:52;;;;;;;5.90;1.45;;;;;;;5.50;81.42;97524.47;5093423;28;20055;-81
2021/01/30 08:10:25;;;;;;;5.88;1.42;;;;;;;5.39;81.70;97514.19;5092984;28;20104;-81
2021/01/30 08:13:03;;;;;;;6.68;1.48;;;;;;;5.59;80.24;97526.00;5092272;28;20040;-81
2021/01/30 08:15:36;;;;;;;14.73;2.80;;;;;;;5.60;79.50;97522.28;5092480;28;20109;-81
2021/01/30 08:18:16;;;;;;;12.95;3.47;;;;;;;5.48;79.53;97495.00;5092894;28;20040;-81
2021/01/30 08:20:49;;;;;;;14.07;2.67;;;;;;;5.57;79.61;97519.13;5093121;28;20079;-81
2021/01/30 08:23:48;;;;;;;9.23;3.17;;;;;;;5.65;80.34;97519.00;5069755;27;20492;-82
2021/01/30 08:26:23;;;;;;;9.93;3.70;;;;;;;5.72;78.84;97516.34;5069136;28;20052;-81
2021/01/30 08:29:11;;;;;;;5.38;2.67;;;;;;;5.76;78.90;97512.25;5068653;28;20063;-82
2021/01/30 08:31:41;;;;;;;10.52;3.45;;;;;;;5.83;78.69;97510.44;5069873;28;20045;-81
2021/01/30 08:34:25;;;;;;;12.40;2.50;;;;;;;5.76;79.78;97507.69;5069971;28;20053;-82
2021/01/30 08:36:53;;;;;;;13.02;2.58;;;;;;;5.89;79.34;97519.63;5049968;28;20045;-82
2021/01/30 08:39:25;;;;;;;10.40;2.35;;;;;;;5.74;79.56;97493.56;5050152;28;20496;-82
2021/01/30 08:41:55;;;;;;;9.60;2.45;;;;;;;5.92;81.07;97514.66;5061741;28;20049;-81
2021/01/30 08:44:37;;;;;;;10.98;4.38;;;;;;;6.15;77.96;97519.84;5069121;28;20061;-82
2021/01/30 08:47:25;;;;;;;9.77;2.20;;;;;;;6.16;77.93;97499.94;5049688;28;20485;-83
2021/01/30 08:50:01;;;;;;;8.43;2.08;;;;;;;6.33;78.32;97519.34;5045068;28;20103;-84
2021/01/30 08:52:38;;;;;;;19.20;2.47;;;;;;;6.35;77.69;97511.03;5048049;28;20056;-84
2021/01/30 08:55:35;;;;;;;10.52;2.50;;;;;;;6.14;79.39;97472.31;5048871;28;20049;-81
2021/01/30 08:58:02;;;;;;;9.43;1.92;;;;;;;6.25;76.79;97465.53;5060232;28;20524;-81
2021/01/30 09:00:51;;;;;;;9.90;2.47;;;;;;;6.39;77.75;97493.44;5069322;28;20052;-81
2021/01/30 09:03:50;;;;;;;8.70;1.75;;;;;;;6.50;76.58;97500.13;5067059;28;20049;-81
2021/01/30 09:06:55;;;;;;;11.90;1.90;;;;;;;6.50;78.04;97495.56;5068425;28;20061;-81
2021/01/30 09:09:24;;;;;;;4.32;1.17;;;;;;;6.58;77.59;97507.22;5068411;28;20049;-81
2021/01/30 09:11:52;;;;;;;3.40;1.48;;;;;;;6.62;77.55;97495.00;5067869;28;20049;-81
2021/01/30 09:14:48;;;;;;;9.82;1.70;;;;;;;6.72;76.70;97498.16;5068943;28;20114;-81
2021/01/30 09:17:43;;;;;;;12.77;2.38;;;;;;;6.77;76.70;97501.06;5025304;28;20486;-81
2021/01/30 09:20:17;;;;;;;11.45;1.73;;;;;;;6.75;76.65;97480.72;5066688;28;20499;-81
2021/01/30 09:22:56;;;;;;;7.72;1.70;;;;;;;6.81;76.54;97469.13;5067707;28;20049;-81
2021/01/30 09:25:36;;;;;;;7.15;1.60;;;;;;;6.97;77.45;97489.50;5067937;28;20049;-81
2021/01/30 09:28:08;;;;;;;9.98;2.00;;;;;;;6.91;77.40;97467.69;5056023;28;20397;-81
2021/01/30 09:30:38;;;;;;;11.57;2.40;;;;;;;6.93;75.36;97464.78;5068635;28;20049;-81
2021/01/30 09:33:12;;;;;;;12.18;3.13;;;;;;;7.08;75.47;97489.75;5063303;28;20041;-80
2021/01/30 09:35:41;;;;;;;7.13;2.20;;;;;;;6.87;76.24;97460.19;5054007;28;20060;-80
2021/01/30 09:38:33;;;;;;;10.50;2.63;;;;;;;7.12;75.81;97483.94;5054855;28;20053;-79
2021/01/30 09:41:12;;;;;;;5.90;1.60;;;;;;;7.11;75.70;97475.03;5033169;28;20076;-82
2021/01/30 09:43:40;;;;;;;11.10;2.50;;;;;;;7.20;75.23;97475.66;5034665;28;20053;-81
2021/01/30 09:46:13;;;;;;;7.60;1.65;;;;;;;7.07;75.29;97474.56;5047991;28;20045;-81
2021/01/30 09:48:41;;;;;;;7.35;1.60;;;;;;;7.04;75.82;97453.38;5053401;28;20048;-81
2021/01/30 09:51:10;;;;;;;8.85;1.55;;;;;;;7.22;74.15;97479.00;5046184;28;20052;-82
2021/01/30 09:54:02;;;;;;;10.00;1.70;;;;;;;7.16;75.04;97480.63;5055352;28;20148;-82
2021/01/30 09:56:35;;;;;;;18.00;2.58;;;;;;;7.12;74.29;97463.19;5054545;28;20063;-81
2021/01/30 09:59:04;;;;;;;15.57;3.15;;;;;;;7.20;74.38;97471.09;5054787;28;20551;-81
2021/01/30 10:01:34;;;;;;;6.45;1.90;;;;;;;7.28;73.86;97463.81;5054684;28;20076;-81
2021/01/30 10:04:14;;;;;;;10.70;1.90;;;;;;;7.22;74.26;97450.06;5054698;28;20170;-81
2021/01/30 10:06:42;;;;;;;12.02;1.67;;;;;;;7.21;74.65;97456.53;5038055;28;20053;-84
2021/01/30 10:09:15;;;;;;;5.60;1.30;;;;;;;7.21;74.19;97453.84;5054669;28;20037;-84
2021/01/30 10:11:44;;;;;;;15.43;3.08;;;;;;;7.24;74.68;97466.09;5054019;28;20053;-81
2021/01/30 10:14:15;;;;;;;10.35;2.00;;;;;;;7.36;74.08;97458.22;5034258;28;20054;-81
2021/01/30 10:16:44;;;;;;;5.00;1.63;;;;;;;7.06;73.75;97420.75;5053503;28;20618;-82
2021/01/30 10:19:22;;;;;;;6.40;1.55;;;;;;;7.21;74.20;97434.06;5054437;28;20111;-81
2021/01/30 10:21:52;;;;;;;10.25;2.30;;;;;;;7.33;74.13;97427.03;5053380;28;20053;-81
2021/01/30 10:24:21;;;;;;;7.82;2.17;;;;;;;7.28;72.97;97416.00;5053627;28;20105;-81
2021/01/30 10:26:49;;;;;;;7.28;1.42;;;;;;;7.36;73.10;97412.25;5054625;28;20049;-82
2021/01/30 10:29:19;;;;;;;16.67;1.65;;;;;;;7.42;73.40;97433.91;5054299;28;20041;-82
2021/01/30 10:31:49;;;;;;;7.40;1.45;;;;;;;7.37;72.94;97433.66;5054652;28;20103;-84
2021/01/30 10:34:22;;;;;;;12.02;2.17;;;;;;;7.43;73.78;97437.44;5053894;28;20056;-81
2021/01/30 10:36:54;;;;;;;11.70;2.42;;;;;;;7.32;73.17;97406.44;5054169;28;20052;-83
2021/01/30 10:39:22;;;;;;;10.05;2.25;;;;;;;7.59;73.62;97425.38;5054148;28;20135;-84
2021/01/30 10:41:50;;;;;;;6.75;1.92;;;;;;;7.64;73.10;97413.94;5051888;28;20403;-84
2021/01/30 10:44:27;;;;;;;10.68;1.83;;;;;;;7.68;72.50;97437.66;5051499;28;20076;-81
2021/01/30 10:47:00;;;;;;;10.88;1.75;;;;;;;7.50;72.30;97418.50;5053578;28;20075;-84
2021/01/30 10:49:31;;;;;;;6.68;2.05;;;;;;;7.40;73.68;97400.00;5052523;28;20394;-81
2021/01/30 10:52:04;;;;;;;8.27;1.83;;;;;;;7.49;73.61;97408.72;5050119;28;20077;-81
2021/01/30 10:54:32;;;;;;;7.50;1.95;;;;;;;7.46;73.34;97406.44;5051476;28;20485;-84
2021/01/30 10:57:06;;;;;;;5.57;1.40;;;;;;;7.32;75.60;97416.44;5052949;28;20060;-82
2021/01/30 10:59:48;;;;;;;6.45;1.70;;;;;;;7.28;76.31;97428.69;5050646;28;20083;-81
2021/01/30 11:02:37;;;;;;;9.50;1.75;;;;;;;7.04;76.63;97414.72;5051373;28;20131;-80
2021/01/30 11:05:22;;;;;;;15.70;2.15;;;;;;;7.04;77.86;97426.34;5051194;28;20047;-80
2021/01/30 11:07:52;;;;;;;10.10;2.45;;;;;;;6.79;79.18;97418.00;5052963;28;20497;-80
2021/01/30 11:10:26;;;;;;;9.85;2.45;;;;;;;6.74;79.66;97409.66;5053344;28;20060;-80
2021/01/30 11:12:54;;;;;;;11.65;1.40;;;;;;;6.70;79.44;97420.03;5053009;28;20557;-79
2021/01/30 11:15:29;;;;;;;7.97;1.85;;;;;;;6.49;79.43;97401.28;5052303;28;20053;-80
2021/01/30 11:18:15;;;;;;;7.65;2.00;;;;;;;6.42;80.34;97411.22;5053091;28;20045;-80
2021/01/30 11:20:46;;;;;;;5.80;1.85;;;;;;;6.49;80.71;97412.91;5051413;28;20041;-79
2021/01/30 11:23:36;;;;;;;9.98;4.22;;;;;;;6.58;80.09;97427.06;5052524;28;20119;-81
2021/01/30 11:26:12;;;;;;;5.53;1.10;;;;;;;6.42;80.24;97401.25;5052411;28;20404;-83
2021/01/30 11:28:38;;;;;;;4.85;1.13;;;;;;;6.50;80.63;97419.13;5033625;28;20045;-84
2021/01/30 11:31:06;;;;;;;2.13;0.68;;;;;;;6.42;79.56;97392.31;5052393;28;20107;-83
2021/01/30 11:33:33;;;;;;;2.90;1.02;;;;;;;6.49;79.44;97393.19;5051804;28;20060;-83
2021/01/30 11:36:00;;;;;;;3.25;0.80;;;;;;;6.29;78.53;97369.66;5052495;28;20044;-83
2021/01/30 11:38:28;;;;;;;3.80;0.88;;;;;;;6.52;80.11;97382.81;5053191;28;20065;-84
2021/01/30 11:40:58;;;;;;;2.03;0.93;;;;;;;6.60;79.82;97394.47;5052706;28;20044;-84
2021/01/30 11:43:25;;;;;;;;;;;;;;;6.65;79.93;97389.28;5052732;28;20489;-84
2021/01/30 11:45:52;;;;;;;4.85;1.20;;;;;;;6.65;80.51;97384.69;5051966;28;19952;-83
2021/01/30 11:48:21;;;;;;;5.60;1.35;;;;;;;6.65;81.02;97348.78;5052639;28;20558;-83
2021/01/30 11:50:49;;;;;;;10.55;1.10;;;;;;;6.89;80.36;97386.03;5051443;28;20056;-84
2021/01/30 11:53:18;;;;;;;9.13;1.38;;;;;;;6.64;81.03;97350.66;5052266;28;20080;-83
2021/01/30 11:55:45;;;;;;;7.88;2.25;;;;;;;6.88;80.93;97368.16;5051466;28;20489;-83
2021/01/30 11:58:13;;;;;;;9.68;1.55;;;;;;;6.85;82.24;97338.00;5052418;28;20049;-83
2021/01/30 12:00:39;;;;;;;3.42;1.08;;;;;;;7.05;81.66;97346.13;5052310;28;20052;-84
2021/01/30 12:03:06;;;;;;;4.85;1.08;;;;;;;6.99;81.28;97325.34;5052419;28;20045;-83
2021/01/30 12:05:33;;;;;;;4.85;1.30;;;;;;;7.20;81.35;97351.34;5034685;28;20102;-83
2021/01/30 12:08:00;;;;;;;8.55;1.55;;;;;;;7.05;80.92;97319.94;5048136;28;20063;-84
2021/01/30 12:10:27;;;;;;;4.57;0.90;;;;;;;7.09;81.26;97325.75;5052667;28;20063;-84
2021/01/30 12:12:53;;;;;;;5.40;1.17;;;;;;;7.13;81.92;97334.28;5051887;28;20056;-84